Flight Track Log - Related Links

Times and Time Zones

All times are in EDT time to prevent confusion due to time zone crossing. See the N311GM flight status page for this flight to view local times or setup timezone preferences in your user account.


Time Position Orientation Groundspeed Altitude Reporting Facility
EDT Latitude Longitude Course Direction KTS MPH feet Rate Location/Type
Mon 07:08:22 AM 33.3925 -88.8633 191° South 123 142 2,600  Level Memphis Center
Mon 07:09:22 AM 33.3486 -88.8739 191° South 155 178 4,600 1,835 Climbing Memphis Center
Mon 07:10:23 AM 33.3014 -88.8892 195° South 166 191 6,300 1,835 Climbing Memphis Center
Mon 07:11:23 AM 33.2478 -88.9058 195° South 191 220 8,300 1,934 Climbing Memphis Center
Mon 07:12:24 AM 33.1956 -88.9208 194° South 193 222 10,200 1,785 Climbing Memphis Center
Mon 07:13:24 AM 33.1444 -88.9372 195° South 193 222 11,900 1,736 Climbing Memphis Center
Mon 07:14:25 AM 33.0917 -88.9531 194° South 193 222 13,700 1,672 Climbing Memphis Center
Mon 07:15:26 AM 33.0294 -88.9742 196° South 193 222 15,300 1,587 Climbing Memphis Center
Mon 07:16:26 AM 32.9750 -88.9894 193° South 198 228 16,900 1,438 Climbing Memphis Center
Mon 07:17:27 AM 32.9242 -89.0050 194° South 194 223 18,200 1,230 Climbing Memphis Center
Mon 07:18:28 AM 32.8725 -89.0208 194° South 193 222 19,400 1,190 Climbing Memphis Center
Mon 07:19:28 AM 32.8194 -89.0367 194° South 194 223 20,600 1,091 Climbing Memphis Center
Mon 07:20:29 AM 32.7653 -89.0525 194° South 197 227 21,600 984 Climbing Memphis Center
Mon 07:21:30 AM 32.7086 -89.0694 194° South 207 238 22,600 934 Climbing Memphis Center
Mon 07:22:31 AM 32.6503 -89.0878 195° South 213 245 23,500 934 Climbing Memphis Center
Mon 07:23:32 AM 32.5911 -89.1053 194° South 214 246 24,500 934 Climbing Memphis Center
Mon 07:24:33 AM 32.5328 -89.1231 194° South 215 247 25,400 843 Climbing Memphis Center
Mon 07:25:33 AM 32.4733 -89.1417 195° South 215 247 26,200 738 Climbing Memphis Center
Mon 07:26:35 AM 32.4114 -89.1592 193° South 221 254 26,900 787 Climbing Memphis Center
Mon 07:27:35 AM 32.3367 -89.1822 195° South 227 261 27,800 744 Climbing Memphis Center
Mon 07:28:36 AM 32.2736 -89.2011 194° South 228 262 28,400 590 Climbing Memphis Center
Mon 07:29:37 AM 32.2097 -89.2206 194° South 232 267 29,000 541 Climbing Memphis Center
Mon 07:30:38 AM 32.1433 -89.2403 194° South 239 275 29,500 590 Climbing Memphis Center
Mon 07:31:39 AM 32.0767 -89.2617 195° South 242 278 30,200 590 Climbing Memphis Center
Mon 07:32:40 AM 32.0122 -89.2803 194° South 242 278 30,700 492 Climbing Memphis Center
Mon 07:33:41 AM 31.9475 -89.3003 195° South 242 278 31,200 393 Climbing Memphis Center
Mon 07:34:42 AM 31.8811 -89.3200 194° South 242 278 31,500 344 Climbing Memphis Center
Mon 07:35:43 AM 31.8139 -89.3403 194° South 246 283 31,900 244 Climbing Memphis Center
Mon 07:36:45 AM 31.7458 -89.3611 195° South 248 285 32,000 49 Climbing Memphis Center
Mon 07:37:46 AM 31.6722 -89.3819 194° South 259 298 32,000  Level Memphis Center
Mon 07:38:36 AM 31.5969 -89.4039 194° South 274 315 32,000  Level Houston Center
Mon 07:39:37 AM 31.5222 -89.4264 194° South 276 318 32,000  Level Houston Center
Mon 07:40:38 AM 31.4450 -89.4497 194° South 282 325 32,000  Level Houston Center
Mon 07:41:39 AM 31.3678 -89.4717 194° South 284 327 32,000  Level Houston Center
Mon 07:42:40 AM 31.2914 -89.4956 195° South 284 327 32,000  Level Houston Center
Mon 07:43:41 AM 31.2200 -89.5167 194° South 284 327 32,000  Level Houston Center
Mon 07:44:42 AM 31.1272 -89.5436 194° South 284 327 32,000  Level Houston Center
Mon 07:45:43 AM 31.0511 -89.5656 194° South 284 327 32,000  Level Houston Center
Mon 07:46:44 AM 30.9744 -89.5886 194° South 284 327 32,000  Level Houston Center
Mon 07:47:45 AM 30.8981 -89.6108 194° South 284 327 32,000  Level Houston Center
Mon 07:48:46 AM 30.8208 -89.6331 194° South 284 327 32,000  Level Houston Center
Mon 07:49:47 AM 30.7439 -89.6558 194° South 284 327 32,000  Level Houston Center
Mon 07:50:49 AM 30.6669 -89.6783 194° South 284 327 32,000  Level Houston Center
Mon 07:51:50 AM 30.5903 -89.7003 194° South 285 328 32,000  Level Houston Center
Mon 07:52:51 AM 30.5136 -89.7225 194° South 285 328 32,000  Level Houston Center
Mon 07:53:52 AM 30.4328 -89.7456 194° South 285 328 32,000  Level Houston Center
Mon 07:54:53 AM 30.3536 -89.7692 194° South 294 338 32,000  Level Houston Center
Mon 07:55:54 AM 30.2769 -89.7894 193° South 288 331 32,000  Level Houston Center
Mon 07:56:55 AM 30.1933 -89.8133 194° South 287 330 32,000  Level Houston Center
Mon 07:57:57 AM 30.1172 -89.8358 194° South 286 329 32,000  Level Houston Center
Mon 07:58:58 AM 30.0400 -89.8581 194° South 286 329 32,000  Level Houston Center
Mon 07:59:59 AM 29.9633 -89.8806 194° South 285 328 32,000  Level Houston Center
Mon 08:01:00 AM 29.8719 -89.9069 194° South 285 328 32,000  Level Houston Center
Mon 08:02:01 AM 29.7958 -89.9283 194° South 284 327 32,000  Level Houston Center
Mon 08:03:02 AM 29.7200 -89.9478 193° South 281 323 32,000 390 Level Houston Center
Mon 08:04:04 AM 29.6444 -89.9500 181° South 272 313 32,800 488 Climbing Houston Center
Mon 08:05:05 AM 29.5756 -89.9564 185° South 254 292 33,000 98 Climbing Houston Center
Mon 08:06:06 AM 29.5042 -89.9608 183° South 254 292 33,000  Level Houston Center
Mon 08:07:07 AM 29.4303 -89.9661 184° South 263 303 33,000  Level Houston Center
Mon 08:08:09 AM 29.3550 -89.9714 183° South 266 306 33,000  Level Houston Center
Mon 08:09:10 AM 29.2789 -89.9769 184° South 271 312 33,000  Level Houston Center
Mon 08:10:11 AM 29.2036 -89.9825 184° South 271 312 33,000  Level Houston Center
Mon 08:11:12 AM 29.1128 -89.9897 184° South 271 312 33,000  Level Houston Center
Mon 08:12:14 AM 29.0378 -89.9958 184° South 271 312 33,000  Level Houston Center
Mon 08:13:15 AM 28.9619 -90.0017 184° South 272 313 33,000  Level Houston Center
Mon 08:14:16 AM 28.8853 -90.0069 183° South 273 314 33,000  Level Houston Center
Mon 08:15:18 AM 28.8094 -90.0133 184° South 273 314 33,000  Level Houston Center
Mon 08:16:19 AM 28.7322 -90.0192 184° South 275 316 33,000  Level Houston Center
Mon 08:17:20 AM 28.6567 -90.0242 183° South 275 316 33,000  Level Houston Center
Mon 08:18:22 AM 28.5794 -90.0294 183° South 275 316 33,000  Level Houston Center
Mon 08:19:23 AM 28.5028 -90.0347 183° South 275 316 33,000  Level Houston Center
Mon 08:20:24 AM 28.4111 -90.0431 185° South 275 316 33,000  Level Houston Center
Mon 08:21:26 AM 28.3353 -90.0481 183° South 275 316 33,000  Level Houston Center
Mon 08:22:27 AM 28.2594 -90.0517 182° South 274 315 33,000  Level Houston Center
Mon 08:23:29 AM 28.1842 -90.0514 180° South 272 313 33,000  Level Houston Center
Mon 08:24:30 AM 28.1075 -90.0436 175° South 271 312 33,000  Level Houston Center
Mon 08:25:32 AM 28.0317 -90.0372 176° South 271 312 33,000  Level Houston Center
Mon 08:26:33 AM 27.9567 -90.0322 177° South 272 313 33,000  Level Houston Center
Mon 08:27:35 AM 27.8817 -90.0294 178° South 271 312 33,000  Level Houston Center
Mon 08:28:36 AM 27.7914 -90.0281 179° South 271 312 33,000  Level Houston Center
Mon 08:29:38 AM 27.7156 -90.0244 178° South 271 312 33,000  Level Houston Center
Mon 08:30:39 AM 27.6403 -90.0222 179° South 271 312 33,000  Level Houston Center
Mon 08:31:41 AM 27.5656 -90.0181 177° South 271 312 33,000  Level Houston Center
Mon 08:33:00 AM 27.4680 -90.0113 176° South  Level FlightAware Approximate
Mon 08:40:00 AM 26.9495 -89.9757 176° South  Level FlightAware Approximate
Mon 08:41:00 AM 26.8754 -89.9707 177° South  Level FlightAware Approximate
Mon 08:42:00 AM 26.8013 -89.9656 176° South  Level FlightAware Approximate
Mon 08:43:00 AM 26.7273 -89.9603 176° South  Level FlightAware Approximate
Mon 08:44:00 AM 26.6532 -89.9550 176° South  Level FlightAware Approximate
Mon 08:45:00 AM 26.5791 -89.9497 176° South  Level FlightAware Approximate
Mon 08:46:00 AM 26.5051 -89.9444 176° South  Level FlightAware Approximate
Mon 08:47:00 AM 26.4310 -89.9391 176° South  Level FlightAware Approximate
Mon 08:48:00 AM 26.3569 -89.9338 176° South  Level FlightAware Approximate
Mon 08:49:00 AM 26.2828 -89.9301 178° South  Level FlightAware Approximate
Mon 08:50:00 AM 26.2087 -89.9266 178° South  Level FlightAware Approximate
Mon 08:51:00 AM 26.1345 -89.9230 178° South  Level FlightAware Approximate
Mon 08:52:00 AM 26.0604 -89.9195 178° South  Level FlightAware Approximate
Mon 08:53:00 AM 25.9862 -89.9160 178° South  Level FlightAware Approximate
Mon 08:54:00 AM 25.9121 -89.9124 178° South  Level FlightAware Approximate
Mon 08:55:00 AM 25.8379 -89.9089 178° South  Level FlightAware Approximate
Mon 08:56:00 AM 25.7638 -89.9054 178° South  Level FlightAware Approximate
Mon 08:57:00 AM 25.6896 -89.9019 178° South  Level FlightAware Approximate
Mon 08:58:00 AM 25.6155 -89.8980 177° South  Level FlightAware Approximate
Mon 08:59:00 AM 25.5414 -89.8936 177° South  Level FlightAware Approximate
Mon 09:00:00 AM 25.4672 -89.8893 177° South  Level FlightAware Approximate
Mon 09:01:00 AM 25.3931 -89.8850 177° South  Level FlightAware Approximate
Mon 09:02:00 AM 25.3190 -89.8807 177° South  Level FlightAware Approximate
Mon 09:03:00 AM 25.2449 -89.8764 177° South  Level FlightAware Approximate
Mon 09:04:00 AM 25.1708 -89.8721 177° South  Level FlightAware Approximate
Mon 09:05:00 AM 25.0967 -89.8678 177° South  Level FlightAware Approximate
Mon 09:06:00 AM 25.0226 -89.8635 177° South  Level FlightAware Approximate
Mon 09:07:00 AM 24.9484 -89.8592 177° South  Level FlightAware Approximate
Mon 09:08:00 AM 24.8743 -89.8549 177° South  Level FlightAware Approximate
Mon 09:09:00 AM 24.8002 -89.8506 177° South  Level FlightAware Approximate
Mon 09:10:00 AM 24.7261 -89.8463 177° South  Level FlightAware Approximate
Mon 09:11:00 AM 24.6520 -89.8421 177° South  Level FlightAware Approximate
Mon 09:12:00 AM 24.5779 -89.8378 177° South  Level FlightAware Approximate
Mon 09:13:00 AM 24.5037 -89.8335 177° South  Level FlightAware Approximate
Mon 09:14:00 AM 24.4296 -89.8309 178° South  Level FlightAware Approximate
Mon 09:15:00 AM 24.3554 -89.8275 178° South  Level FlightAware Approximate
Mon 09:16:00 AM 24.2813 -89.8241 178° South  Level FlightAware Approximate
Mon 09:17:00 AM 24.2071 -89.8207 178° South  Level FlightAware Approximate
Mon 09:18:00 AM 24.1330 -89.8174 178° South  Level FlightAware Approximate
Mon 09:19:00 AM 24.0588 -89.8140 178° South  Level FlightAware Approximate
Mon 09:20:00 AM 23.9847 -89.8106 178° South  Level FlightAware Approximate
Mon 09:21:00 AM 23.9105 -89.8073 178° South  Level FlightAware Approximate
Mon 09:22:00 AM 23.8363 -89.8039 178° South  Level FlightAware Approximate
Mon 09:23:00 AM 23.7622 -89.8006 178° South  Level FlightAware Approximate
Mon 09:24:00 AM 23.6881 -89.7962 177° South  Level FlightAware Approximate
Mon 09:25:00 AM 23.6140 -89.7916 177° South  Level FlightAware Approximate
Mon 09:26:00 AM 23.5399 -89.7870 177° South  Level FlightAware Approximate
Mon 09:27:00 AM 23.4658 -89.7824 177° South  Level FlightAware Approximate
Mon 09:28:00 AM 23.3917 -89.7778 177° South  Level FlightAware Approximate
Mon 09:29:00 AM 23.3176 -89.7733 177° South  Level FlightAware Approximate
Mon 09:30:00 AM 23.2435 -89.7687 177° South  Level FlightAware Approximate
Mon 09:31:00 AM 23.1694 -89.7641 177° South  Level FlightAware Approximate
Mon 09:32:00 AM 23.0953 -89.7596 177° South  Level FlightAware Approximate
Mon 09:33:00 AM 23.0212 -89.7550 177° South  Level FlightAware Approximate
Mon 09:34:00 AM 22.9471 -89.7505 177° South  Level FlightAware Approximate
Mon 09:35:00 AM 22.8730 -89.7459 177° South  Level FlightAware Approximate
Mon 09:36:00 AM 22.7989 -89.7414 177° South  Level FlightAware Approximate
Mon 09:37:00 AM 22.7248 -89.7369 177° South  Level FlightAware Approximate
Mon 09:38:00 AM 22.6507 -89.7327 178° South  Level FlightAware Approximate
Mon 09:39:00 AM 22.5765 -89.7299 178° South  Level FlightAware Approximate
Mon 09:40:00 AM 22.5023 -89.7270 178° South  Level FlightAware Approximate
Mon 09:41:00 AM 22.4282 -89.7242 178° South  Level FlightAware Approximate
Mon 09:42:00 AM 22.3540 -89.7213 178° South  Level FlightAware Approximate
Mon 09:43:00 AM 22.2798 -89.7185 178° South  Level FlightAware Approximate
Mon 09:44:00 AM 22.2057 -89.7150 177° South  Level FlightAware Approximate
Mon 09:45:00 AM 22.1316 -89.7107 177° South  Level FlightAware Approximate
Mon 09:46:00 AM 22.0575 -89.7063 177° South  Level FlightAware Approximate
Mon 09:47:00 AM 21.9834 -89.7020 177° South  Level FlightAware Approximate
Mon 09:48:00 AM 21.9093 -89.6979 177° South  Level FlightAware Approximate
Mon 09:49:00 AM 21.8351 -89.6939 177° South  Level FlightAware Approximate
Mon 09:50:00 AM 21.7610 -89.6900 177° South  Level FlightAware Approximate
Mon 09:51:00 AM 21.6869 -89.6861 177° South  Level FlightAware Approximate
Mon 09:52:00 AM 21.6127 -89.6821 177° South  Level FlightAware Approximate
Mon 09:53:00 AM 21.5386 -89.6778 177° South  Level FlightAware Approximate
Mon 09:54:00 AM 21.4645 -89.6734 177° South  Level FlightAware Approximate
Mon 09:55:00 AM 21.3904 -89.6690 177° South  Level FlightAware Approximate
Mon 09:56:00 AM 21.3163 -89.6653 178° South  Level FlightAware Approximate
Mon 09:57:00 AM 21.2421 -89.6623 178° South  Level FlightAware Approximate
Mon 09:58:00 AM 21.1680 -89.6594 178° South  Level FlightAware Approximate
Mon 09:59:00 AM 21.0938 -89.6564 178° South  Level FlightAware Approximate
Mon 10:00:00 AM 21.0196 -89.6534 178° South  Level FlightAware Approximate
Mon 10:01:00 AM 20.9455 -89.6505 178° South  Level FlightAware Approximate
Mon 10:02:00 AM 20.8753 -89.6265 159° South  Level FlightAware Approximate
Mon 10:03:00 AM 20.8059 -89.5983 159° South  Level FlightAware Approximate
Mon 10:04:00 AM 20.7365 -89.5702 159° South  Level FlightAware Approximate
Mon 10:05:00 AM 20.6670 -89.5422 159° South  Level FlightAware Approximate
Mon 10:06:00 AM 20.5976 -89.5141 159° South  Level FlightAware Approximate
Mon 10:07:00 AM 20.5282 -89.4861 159° South  Level FlightAware Approximate
Mon 10:08:00 AM 20.4588 -89.4581 159° South  Level FlightAware Approximate
Mon 10:09:00 AM 20.3893 -89.4302 159° South  Level FlightAware Approximate
Mon 10:10:00 AM 20.3199 -89.4022 159° South  Level FlightAware Approximate
Mon 10:11:00 AM 20.2504 -89.3743 159° South  Level FlightAware Approximate
Mon 10:12:00 AM 20.1810 -89.3464 159° South  Level FlightAware Approximate
Mon 10:13:00 AM 20.1115 -89.3185 159° South  Level FlightAware Approximate
Mon 10:14:00 AM 20.0421 -89.2907 159° South  Level FlightAware Approximate
Mon 10:15:00 AM 19.9726 -89.2629 159° South  Level FlightAware Approximate
Mon 10:16:00 AM 19.9032 -89.2351 159° South  Level FlightAware Approximate
Mon 10:17:00 AM 19.8337 -89.2073 159° South  Level FlightAware Approximate
Mon 10:18:00 AM 19.7642 -89.1796 159° South  Level FlightAware Approximate
Mon 10:19:00 AM 19.6947 -89.1518 159° South  Level FlightAware Approximate
Mon 10:20:00 AM 19.6252 -89.1242 159° South  Level FlightAware Approximate
Mon 10:21:00 AM 19.5558 -89.0965 159° South  Level FlightAware Approximate
Mon 10:22:00 AM 19.4863 -89.0688 159° South  Level FlightAware Approximate
Mon 10:23:00 AM 19.4168 -89.0412 159° South  Level FlightAware Approximate
Mon 10:24:00 AM 19.3473 -89.0136 159° South  Level FlightAware Approximate
Mon 10:25:00 AM 19.2778 -88.9860 159° South  Level FlightAware Approximate
Mon 10:26:00 AM 19.2083 -88.9585 159° South  Level FlightAware Approximate
Mon 10:27:00 AM 19.1388 -88.9309 159° South  Level FlightAware Approximate
Mon 10:28:00 AM 19.0692 -88.9034 159° South  Level FlightAware Approximate
Mon 10:29:00 AM 18.9997 -88.8760 160° South  Level FlightAware Approximate
Mon 10:30:00 AM 18.9302 -88.8485 160° South  Level FlightAware Approximate
Mon 10:31:00 AM 18.8607 -88.8211 160° South  Level FlightAware Approximate
Mon 10:32:00 AM 18.7911 -88.7936 160° South  Level FlightAware Approximate
Mon 10:33:00 AM 18.7216 -88.7662 160° South  Level FlightAware Approximate
Mon 10:34:00 AM 18.6521 -88.7389 160° South  Level FlightAware Approximate
Mon 10:35:00 AM 18.5825 -88.7115 160° South  Level FlightAware Approximate
Mon 10:36:00 AM 18.5130 -88.6842 160° South  Level FlightAware Approximate
Mon 10:37:00 AM 18.4434 -88.6569 160° South  Level FlightAware Approximate
Mon 10:38:00 AM 18.3738 -88.6299 161° South  Level FlightAware Approximate
Mon 10:39:00 AM 18.3035 -88.6048 161° South  Level FlightAware Approximate
Mon 10:40:00 AM 18.2332 -88.5796 161° South  Level FlightAware Approximate
Mon 10:41:00 AM 18.1629 -88.5545 161° South  Level FlightAware Approximate
Mon 10:42:00 AM 18.0926 -88.5294 161° South  Level FlightAware Approximate
Mon 10:43:00 AM 18.0224 -88.5043 161° South  Level FlightAware Approximate
Mon 10:44:00 AM 17.9521 -88.4793 161° South  Level FlightAware Approximate
Mon 10:45:00 AM 17.8830 -88.4509 156° South  Level FlightAware Approximate
Mon 10:46:00 AM 17.8152 -88.4193 156° South  Level FlightAware Approximate
Mon 10:47:00 AM 17.7474 -88.3876 156° South  Level FlightAware Approximate
Mon 10:48:00 AM 17.6795 -88.3560 156° South  Level FlightAware Approximate
Mon 10:49:00 AM 17.6100 -88.3288 160° South  Level FlightAware Approximate
Mon 10:50:00 AM 17.5401 -88.3026 160° South  Level FlightAware Approximate
Mon 10:51:00 AM 17.4675 -88.2868 169° South  Level FlightAware Approximate
Mon 10:52:00 AM 17.3946 -88.2723 169° South  Level FlightAware Approximate
Mon 10:53:00 AM 17.3215 -88.2591 171° South  Level FlightAware Approximate
Mon 10:54:00 AM 17.2482 -88.2469 171° South  Level FlightAware Approximate
Mon 10:55:00 AM 17.1749 -88.2347 171° South  Level FlightAware Approximate
Mon 10:56:00 AM 17.1016 -88.2225 171° South  Level FlightAware Approximate
Mon 10:57:00 AM 17.0287 -88.2080 168° South  Level FlightAware Approximate
Mon 10:58:00 AM 16.9562 -88.1915 168° South  Level FlightAware Approximate
Mon 10:59:00 AM 16.8837 -88.1750 168° South  Level FlightAware Approximate
Mon 11:00:00 AM 16.8112 -88.1586 168° South  Level FlightAware Approximate
Mon 11:01:00 AM 16.7386 -88.1421 168° South  Level FlightAware Approximate
Mon 11:02:00 AM 16.6658 -88.1274 171° South  Level FlightAware Approximate
Mon 11:03:00 AM 16.5926 -88.1148 171° South  Level FlightAware Approximate
Mon 11:04:00 AM 16.5194 -88.1021 171° South  Level FlightAware Approximate
Mon 11:05:00 AM 16.4461 -88.0895 171° South  Level FlightAware Approximate
Mon 11:06:00 AM 16.3729 -88.0769 171° South  Level FlightAware Approximate
Mon 11:07:00 AM 16.2997 -88.0643 171° South  Level FlightAware Approximate
Mon 11:08:00 AM 16.2264 -88.0517 171° South  Level FlightAware Approximate
Mon 11:09:00 AM 16.1535 -88.0374 169° South  Level FlightAware Approximate
Mon 11:10:00 AM 16.0806 -88.0228 169° South  Level FlightAware Approximate
Mon 11:11:00 AM 16.0080 -88.0070 167° South  Level FlightAware Approximate
Mon 11:12:00 AM 15.9355 -87.9902 167° South  Level FlightAware Approximate
Mon 11:13:00 AM 15.8631 -87.9735 167° South  Level FlightAware Approximate
Mon 11:14:00 AM 15.7904 -87.9581 169° South  Level FlightAware Approximate
Mon 11:15:00 AM 15.7175 -87.9435 169° South  Level FlightAware Approximate
Mon 11:16:00 AM 15.6446 -87.9289 169° South  Level FlightAware Approximate
Mon 11:17:00 AM 15.5717 -87.9144 169° South  Level FlightAware Approximate
Mon 11:18:00 AM 15.4988 -87.9000 180° South  Level FlightAware Approximate
Mon 11:19:00 AM 15.4667 -87.9436 270° West  Level FlightAware Approximate
Mon 11:20:00 AM 15.4667 -87.9500 270° West  Level FlightAware Approximate
Mon 11:21:00 AM 15.4526 -87.9236 270° West  Level Estimated
Mon 11:22:00 AM 15.4526 -87.9236 270° West  Level Estimated
Mon 11:23:00 AM 15.4526 -87.9236 270° West  Level Estimated
Mon 11:24:00 AM 15.4526 -87.9236 270° West  Level Estimated
Mon 11:25:00 AM 15.4526 -87.9236 270° West  Level Estimated
Mon 11:26:00 AM 15.4526 -87.9236 270° West  Level Estimated
Mon 11:27:00 AM 15.4526 -87.9236 270° West  Level Estimated
Mon 11:28:00 AM 15.4526 -87.9236 270° West  Level Estimated
Mon 11:29:00 AM 15.4526 -87.9236 270° West  Level Estimated
Mon 11:30:00 AM 15.4526 -87.9236 270° West  Level Estimated
Mon 11:31:00 AM 15.4526 -87.9236 270° West  Level Estimated

Login

Don't have an account? Register now (free) for customized features, flight alerts, and more!